sensor_id;sensor_type;location;lat;lon;timestamp;temperature;humidity
76470;DHT22;65305;52.870;13.660;2022-12-18T00:01:27;11.10;40.00
76470;DHT22;65305;52.870;13.660;2022-12-18T00:03:54;11.10;40.00
76470;DHT22;65305;52.870;13.660;2022-12-18T00:06:20;10.90;40.20
76470;DHT22;65305;52.870;13.660;2022-12-18T00:08:47;10.90;40.30
76470;DHT22;65305;52.870;13.660;2022-12-18T00:11:15;10.80;40.40
76470;DHT22;65305;52.870;13.660;2022-12-18T00:13:42;10.80;40.40
76470;DHT22;65305;52.870;13.660;2022-12-18T00:16:09;10.70;40.50
76470;DHT22;65305;52.870;13.660;2022-12-18T00:18:36;10.70;40.60
76470;DHT22;65305;52.870;13.660;2022-12-18T00:21:03;10.60;40.60
76470;DHT22;65305;52.870;13.660;2022-12-18T00:23:30;10.60;40.60
76470;DHT22;65305;52.870;13.660;2022-12-18T00:26:00;10.50;40.70
76470;DHT22;65305;52.870;13.660;2022-12-18T00:28:27;10.50;40.60
76470;DHT22;65305;52.870;13.660;2022-12-18T00:31:07;10.50;40.60
76470;DHT22;65305;52.870;13.660;2022-12-18T00:33:36;10.40;40.70
76470;DHT22;65305;52.870;13.660;2022-12-18T00:38:29;10.30;40.70
76470;DHT22;65305;52.870;13.660;2022-12-18T00:40:55;10.30;40.70
76470;DHT22;65305;52.870;13.660;2022-12-18T00:43:22;10.30;40.80
76470;DHT22;65305;52.870;13.660;2022-12-18T00:45:49;10.20;40.80
76470;DHT22;65305;52.870;13.660;2022-12-18T00:48:15;10.20;40.80
76470;DHT22;65305;52.870;13.660;2022-12-18T00:50:41;10.20;40.80
76470;DHT22;65305;52.870;13.660;2022-12-18T00:53:08;10.20;40.80
76470;DHT22;65305;52.870;13.660;2022-12-18T00:55:34;10.10;40.80
76470;DHT22;65305;52.870;13.660;2022-12-18T00:58:01;10.10;40.90
76470;DHT22;65305;52.870;13.660;2022-12-18T01:00:27;10.10;40.80
76470;DHT22;65305;52.870;13.660;2022-12-18T01:02:54;10.10;40.80
76470;DHT22;65305;52.870;13.660;2022-12-18T01:05:20;10.00;40.90
76470;DHT22;65305;52.870;13.660;2022-12-18T01:07:47;10.00;41.00
76470;DHT22;65305;52.870;13.660;2022-12-18T01:10:13;10.00;40.90
76470;DHT22;65305;52.870;13.660;2022-12-18T01:12:40;10.00;40.90
76470;DHT22;65305;52.870;13.660;2022-12-18T01:15:06;10.00;41.00
76470;DHT22;65305;52.870;13.660;2022-12-18T01:17:33;10.00;41.00
76470;DHT22;65305;52.870;13.660;2022-12-18T01:20:00;10.00;41.00
76470;DHT22;65305;52.870;13.660;2022-12-18T01:22:26;10.00;41.00
76470;DHT22;65305;52.870;13.660;2022-12-18T01:24:53;9.90;41.10
76470;DHT22;65305;52.870;13.660;2022-12-18T01:27:19;9.90;41.00
76470;DHT22;65305;52.870;13.660;2022-12-18T01:29:46;9.90;41.00
76470;DHT22;65305;52.870;13.660;2022-12-18T01:32:13;9.80;41.10
76470;DHT22;65305;52.870;13.660;2022-12-18T01:34:40;9.80;41.10
76470;DHT22;65305;52.870;13.660;2022-12-18T01:37:06;9.80;41.10
76470;DHT22;65305;52.870;13.660;2022-12-18T01:39:33;9.80;41.10
76470;DHT22;65305;52.870;13.660;2022-12-18T01:42:00;9.80;41.10
76470;DHT22;65305;52.870;13.660;2022-12-18T01:49:51;9.70;41.30
76470;DHT22;65305;52.870;13.660;2022-12-18T01:52:18;9.70;41.20
76470;DHT22;65305;52.870;13.660;2022-12-18T01:54:44;9.70;41.30
76470;DHT22;65305;52.870;13.660;2022-12-18T01:57:11;9.70;41.20
76470;DHT22;65305;52.870;13.660;2022-12-18T01:59:37;9.60;41.20
76470;DHT22;65305;52.870;13.660;2022-12-18T02:02:05;9.60;41.30
76470;DHT22;65305;52.870;13.660;2022-12-18T02:04:32;9.60;41.40
76470;DHT22;65305;52.870;13.660;2022-12-18T02:07:14;9.60;41.30
76470;DHT22;65305;52.870;13.660;2022-12-18T02:09:53;9.60;41.40
76470;DHT22;65305;52.870;13.660;2022-12-18T02:12:24;9.60;41.40
76470;DHT22;65305;52.870;13.660;2022-12-18T02:15:06;9.60;41.40
76470;DHT22;65305;52.870;13.660;2022-12-18T02:17:38;9.50;41.40
76470;DHT22;65305;52.870;13.660;2022-12-18T02:20:20;9.50;41.50
76470;DHT22;65305;52.870;13.660;2022-12-18T02:22:55;9.50;41.50
76470;DHT22;65305;52.870;13.660;2022-12-18T02:28:11;9.50;41.50
76470;DHT22;65305;52.870;13.660;2022-12-18T02:30:39;9.50;41.50
76470;DHT22;65305;52.870;13.660;2022-12-18T02:33:07;9.50;41.60
76470;DHT22;65305;52.870;13.660;2022-12-18T02:35:34;9.50;41.50
76470;DHT22;65305;52.870;13.660;2022-12-18T02:38:02;9.40;41.50
76470;DHT22;65305;52.870;13.660;2022-12-18T02:40:29;9.40;41.60
76470;DHT22;65305;52.870;13.660;2022-12-18T02:43:01;9.40;41.60
76470;DHT22;65305;52.870;13.660;2022-12-18T02:45:28;9.40;41.60
76470;DHT22;65305;52.870;13.660;2022-12-18T02:47:55;9.40;41.50
76470;DHT22;65305;52.870;13.660;2022-12-18T02:50:34;9.60;41.40
76470;DHT22;65305;52.870;13.660;2022-12-18T02:53:10;10.00;41.00
76470;DHT22;65305;52.870;13.660;2022-12-18T02:58:09;10.50;40.20
76470;DHT22;65305;52.870;13.660;2022-12-18T03:00:39;10.50;40.20
76470;DHT22;65305;52.870;13.660;2022-12-18T03:03:12;10.70;40.00
76470;DHT22;65305;52.870;13.660;2022-12-18T03:05:45;10.80;39.90
76470;DHT22;65305;52.870;13.660;2022-12-18T03:08:33;10.70;40.00
76470;DHT22;65305;52.870;13.660;2022-12-18T03:11:03;10.90;39.80
76470;DHT22;65305;52.870;13.660;2022-12-18T03:13:47;10.90;39.80
76470;DHT22;65305;52.870;13.660;2022-12-18T03:16:17;11.00;39.80
76470;DHT22;65305;52.870;13.660;2022-12-18T03:18:46;11.10;39.70
76470;DHT22;65305;52.870;13.660;2022-12-18T03:21:14;11.10;39.80
76470;DHT22;65305;52.870;13.660;2022-12-18T03:23:44;11.10;39.70
76470;DHT22;65305;52.870;13.660;2022-12-18T03:26:12;11.30;39.50
76470;DHT22;65305;52.870;13.660;2022-12-18T03:28:44;11.20;39.50
76470;DHT22;65305;52.870;13.660;2022-12-18T03:31:12;11.30;39.50
76470;DHT22;65305;52.870;13.660;2022-12-18T03:36:06;11.40;39.40
76470;DHT22;65305;52.870;13.660;2022-12-18T03:38:33;11.40;39.40
76470;DHT22;65305;52.870;13.660;2022-12-18T03:43:51;11.50;39.20
76470;DHT22;65305;52.870;13.660;2022-12-18T03:46:30;11.50;39.20
76470;DHT22;65305;52.870;13.660;2022-12-18T03:49:10;11.70;38.90
76470;DHT22;65305;52.870;13.660;2022-12-18T03:51:39;11.70;39.10
76470;DHT22;65305;52.870;13.660;2022-12-18T03:54:08;11.70;39.00
76470;DHT22;65305;52.870;13.660;2022-12-18T03:56:38;11.80;38.70
76470;DHT22;65305;52.870;13.660;2022-12-18T03:59:07;11.70;38.90
76470;DHT22;65305;52.870;13.660;2022-12-18T04:01:35;11.90;39.00
76470;DHT22;65305;52.870;13.660;2022-12-18T04:04:05;11.90;38.70
76470;DHT22;65305;52.870;13.660;2022-12-18T04:06:32;11.90;38.80
76470;DHT22;65305;52.870;13.660;2022-12-18T04:08:59;11.90;38.70
76470;DHT22;65305;52.870;13.660;2022-12-18T04:11:26;12.00;38.50
76470;DHT22;65305;52.870;13.660;2022-12-18T04:13:56;11.90;38.70
76470;DHT22;65305;52.870;13.660;2022-12-18T04:16:26;12.00;38.70
76470;DHT22;65305;52.870;13.660;2022-12-18T04:18:53;12.10;38.40
76470;DHT22;65305;52.870;13.660;2022-12-18T04:21:20;12.00;38.60
76470;DHT22;65305;52.870;13.660;2022-12-18T04:23:46;12.10;38.50
76470;DHT22;65305;52.870;13.660;2022-12-18T04:26:13;12.20;38.20
76470;DHT22;65305;52.870;13.660;2022-12-18T04:28:39;12.20;38.40
76470;DHT22;65305;52.870;13.660;2022-12-18T04:31:05;12.20;38.40
76470;DHT22;65305;52.870;13.660;2022-12-18T04:33:32;12.40;38.10
76470;DHT22;65305;52.870;13.660;2022-12-18T04:35:58;12.30;38.20
76470;DHT22;65305;52.870;13.660;2022-12-18T04:38:24;12.30;38.30
76470;DHT22;65305;52.870;13.660;2022-12-18T04:40:51;12.50;38.00
76470;DHT22;65305;52.870;13.660;2022-12-18T04:43:17;12.50;38.10
76470;DHT22;65305;52.870;13.660;2022-12-18T04:45:43;12.40;38.20
76470;DHT22;65305;52.870;13.660;2022-12-18T04:48:10;12.50;38.00
76470;DHT22;65305;52.870;13.660;2022-12-18T04:50:36;12.50;38.00
76470;DHT22;65305;52.870;13.660;2022-12-18T04:53:02;12.50;38.00
76470;DHT22;65305;52.870;13.660;2022-12-18T04:55:28;12.50;37.80
76470;DHT22;65305;52.870;13.660;2022-12-18T04:57:55;12.60;37.70
76470;DHT22;65305;52.870;13.660;2022-12-18T05:00:21;12.50;38.00
76470;DHT22;65305;52.870;13.660;2022-12-18T05:02:48;12.60;37.70
76470;DHT22;65305;52.870;13.660;2022-12-18T05:05:14;12.50;37.80
76470;DHT22;65305;52.870;13.660;2022-12-18T05:07:40;12.50;38.00
76470;DHT22;65305;52.870;13.660;2022-12-18T05:10:07;12.30;38.00
76470;DHT22;65305;52.870;13.660;2022-12-18T05:12:33;12.20;38.10
76470;DHT22;65305;52.870;13.660;2022-12-18T05:15:20;12.10;38.30
76470;DHT22;65305;52.870;13.660;2022-12-18T05:17:46;12.00;38.40
76470;DHT22;65305;52.870;13.660;2022-12-18T05:20:12;11.90;38.40
76470;DHT22;65305;52.870;13.660;2022-12-18T05:22:39;11.90;38.50
76470;DHT22;65305;52.870;13.660;2022-12-18T05:25:06;11.90;38.60
76470;DHT22;65305;52.870;13.660;2022-12-18T05:27:32;11.70;38.60
76470;DHT22;65305;52.870;13.660;2022-12-18T05:29:59;11.70;38.60
76470;DHT22;65305;52.870;13.660;2022-12-18T05:32:25;11.70;38.70
76470;DHT22;65305;52.870;13.660;2022-12-18T05:34:52;11.60;38.70
76470;DHT22;65305;52.870;13.660;2022-12-18T05:37:18;11.50;38.80
76470;DHT22;65305;52.870;13.660;2022-12-18T05:39:44;11.50;38.70
76470;DHT22;65305;52.870;13.660;2022-12-18T05:42:11;11.50;38.90
76470;DHT22;65305;52.870;13.660;2022-12-18T05:44:37;11.40;38.90
76470;DHT22;65305;52.870;13.660;2022-12-18T05:47:04;11.40;38.90
76470;DHT22;65305;52.870;13.660;2022-12-18T05:49:30;11.40;39.00
76470;DHT22;65305;52.870;13.660;2022-12-18T05:51:57;11.30;39.00
76470;DHT22;65305;52.870;13.660;2022-12-18T05:54:23;11.30;39.00
76470;DHT22;65305;52.870;13.660;2022-12-18T05:56:50;11.30;39.00
76470;DHT22;65305;52.870;13.660;2022-12-18T05:59:16;11.10;39.00
76470;DHT22;65305;52.870;13.660;2022-12-18T06:01:42;11.10;39.10
76470;DHT22;65305;52.870;13.660;2022-12-18T06:04:09;11.10;39.10
76470;DHT22;65305;52.870;13.660;2022-12-18T06:06:35;11.10;39.10
76470;DHT22;65305;52.870;13.660;2022-12-18T06:09:02;11.10;39.10
76470;DHT22;65305;52.870;13.660;2022-12-18T06:11:34;11.10;39.10
76470;DHT22;65305;52.870;13.660;2022-12-18T06:14:01;11.00;39.10
76470;DHT22;65305;52.870;13.660;2022-12-18T06:16:28;11.00;39.20
76470;DHT22;65305;52.870;13.660;2022-12-18T06:18:58;10.90;39.20
76470;DHT22;65305;52.870;13.660;2022-12-18T06:21:24;10.90;39.30
76470;DHT22;65305;52.870;13.660;2022-12-18T06:23:51;10.90;39.30
76470;DHT22;65305;52.870;13.660;2022-12-18T06:26:18;10.80;39.30
76470;DHT22;65305;52.870;13.660;2022-12-18T06:28:44;10.80;39.30
76470;DHT22;65305;52.870;13.660;2022-12-18T06:31:11;10.80;39.40
76470;DHT22;65305;52.870;13.660;2022-12-18T06:33:38;10.80;39.40
76470;DHT22;65305;52.870;13.660;2022-12-18T06:36:07;10.70;39.40
76470;DHT22;65305;52.870;13.660;2022-12-18T06:38:36;10.70;39.40
76470;DHT22;65305;52.870;13.660;2022-12-18T06:41:15;10.70;39.50
76470;DHT22;65305;52.870;13.660;2022-12-18T06:43:42;10.70;39.40
76470;DHT22;65305;52.870;13.660;2022-12-18T06:46:08;10.60;39.60
76470;DHT22;65305;52.870;13.660;2022-12-18T06:48:35;10.60;39.60
76470;DHT22;65305;52.870;13.660;2022-12-18T06:51:02;10.60;39.60
76470;DHT22;65305;52.870;13.660;2022-12-18T06:53:28;10.50;39.50
76470;DHT22;65305;52.870;13.660;2022-12-18T06:56:02;10.50;39.60
76470;DHT22;65305;52.870;13.660;2022-12-18T06:58:29;10.50;39.70
76470;DHT22;65305;52.870;13.660;2022-12-18T07:01:01;10.50;39.60
76470;DHT22;65305;52.870;13.660;2022-12-18T07:03:28;10.50;39.60
76470;DHT22;65305;52.870;13.660;2022-12-18T07:05:54;10.40;39.70
76470;DHT22;65305;52.870;13.660;2022-12-18T07:08:21;10.40;39.70
76470;DHT22;65305;52.870;13.660;2022-12-18T07:10:48;10.40;39.70
76470;DHT22;65305;52.870;13.660;2022-12-18T07:13:17;10.40;39.70
76470;DHT22;65305;52.870;13.660;2022-12-18T07:15:44;10.30;39.80
76470;DHT22;65305;52.870;13.660;2022-12-18T07:18:11;10.30;39.70
76470;DHT22;65305;52.870;13.660;2022-12-18T07:20:37;10.30;39.70
76470;DHT22;65305;52.870;13.660;2022-12-18T07:23:04;10.30;39.80
76470;DHT22;65305;52.870;13.660;2022-12-18T07:25:34;10.30;39.80
76470;DHT22;65305;52.870;13.660;2022-12-18T07:28:00;10.30;39.90
76470;DHT22;65305;52.870;13.660;2022-12-18T07:30:27;10.20;39.90
76470;DHT22;65305;52.870;13.660;2022-12-18T07:32:53;10.20;39.90
76470;DHT22;65305;52.870;13.660;2022-12-18T07:35:20;10.20;40.00
76470;DHT22;65305;52.870;13.660;2022-12-18T07:37:46;10.20;40.00
76470;DHT22;65305;52.870;13.660;2022-12-18T07:40:13;10.20;40.00
76470;DHT22;65305;52.870;13.660;2022-12-18T07:42:39;10.10;40.00
76470;DHT22;65305;52.870;13.660;2022-12-18T07:45:06;10.10;40.00
76470;DHT22;65305;52.870;13.660;2022-12-18T07:47:35;10.10;40.00
76470;DHT22;65305;52.870;13.660;2022-12-18T07:50:02;10.10;40.00
76470;DHT22;65305;52.870;13.660;2022-12-18T07:52:29;10.10;40.10
76470;DHT22;65305;52.870;13.660;2022-12-18T07:54:56;10.00;40.10
76470;DHT22;65305;52.870;13.660;2022-12-18T07:57:22;10.00;40.10
76470;DHT22;65305;52.870;13.660;2022-12-18T07:59:49;10.00;40.10
76470;DHT22;65305;52.870;13.660;2022-12-18T08:02:15;10.00;40.20
76470;DHT22;65305;52.870;13.660;2022-12-18T08:04:41;10.00;40.10
76470;DHT22;65305;52.870;13.660;2022-12-18T08:07:08;10.00;40.20
76470;DHT22;65305;52.870;13.660;2022-12-18T08:09:35;10.00;40.20
76470;DHT22;65305;52.870;13.660;2022-12-18T08:12:01;10.00;40.20
76470;DHT22;65305;52.870;13.660;2022-12-18T08:14:28;10.00;40.30
76470;DHT22;65305;52.870;13.660;2022-12-18T08:16:54;9.90;40.30
76470;DHT22;65305;52.870;13.660;2022-12-18T08:19:21;9.90;40.20
76470;DHT22;65305;52.870;13.660;2022-12-18T08:21:47;9.90;40.30
76470;DHT22;65305;52.870;13.660;2022-12-18T08:24:14;9.90;40.40
76470;DHT22;65305;52.870;13.660;2022-12-18T08:26:41;9.80;40.40
76470;DHT22;65305;52.870;13.660;2022-12-18T08:29:08;9.80;40.40
76470;DHT22;65305;52.870;13.660;2022-12-18T08:31:35;9.80;40.40
76470;DHT22;65305;52.870;13.660;2022-12-18T08:34:02;9.80;40.40
76470;DHT22;65305;52.870;13.660;2022-12-18T08:36:28;9.80;40.40
76470;DHT22;65305;52.870;13.660;2022-12-18T08:38:55;9.80;40.40
76470;DHT22;65305;52.870;13.660;2022-12-18T08:41:22;9.70;40.50
76470;DHT22;65305;52.870;13.660;2022-12-18T08:43:48;9.70;40.40
76470;DHT22;65305;52.870;13.660;2022-12-18T08:46:37;9.70;40.50
76470;DHT22;65305;52.870;13.660;2022-12-18T08:49:05;9.70;40.50
76470;DHT22;65305;52.870;13.660;2022-12-18T08:51:31;9.70;40.50
76470;DHT22;65305;52.870;13.660;2022-12-18T08:53:58;9.70;40.50
76470;DHT22;65305;52.870;13.660;2022-12-18T08:56:24;9.70;40.60
76470;DHT22;65305;52.870;13.660;2022-12-18T08:58:54;9.60;40.60
76470;DHT22;65305;52.870;13.660;2022-12-18T09:01:21;9.70;40.60
76470;DHT22;65305;52.870;13.660;2022-12-18T09:03:48;9.60;40.60
76470;DHT22;65305;52.870;13.660;2022-12-18T09:06:15;9.60;40.60
76470;DHT22;65305;52.870;13.660;2022-12-18T09:08:42;9.60;40.70
76470;DHT22;65305;52.870;13.660;2022-12-18T09:11:13;9.60;40.70
76470;DHT22;65305;52.870;13.660;2022-12-18T09:13:40;9.60;40.60
76470;DHT22;65305;52.870;13.660;2022-12-18T09:16:06;9.60;40.70
76470;DHT22;65305;52.870;13.660;2022-12-18T09:18:33;9.60;40.70
76470;DHT22;65305;52.870;13.660;2022-12-18T09:20:59;9.50;40.70
76470;DHT22;65305;52.870;13.660;2022-12-18T09:23:26;9.50;40.70
76470;DHT22;65305;52.870;13.660;2022-12-18T09:25:57;9.50;40.70
76470;DHT22;65305;52.870;13.660;2022-12-18T09:28:25;9.50;40.70
76470;DHT22;65305;52.870;13.660;2022-12-18T09:30:51;9.50;40.80
76470;DHT22;65305;52.870;13.660;2022-12-18T09:33:18;9.50;40.80
76470;DHT22;65305;52.870;13.660;2022-12-18T09:35:45;9.50;40.70
76470;DHT22;65305;52.870;13.660;2022-12-18T09:38:15;9.50;40.80
76470;DHT22;65305;52.870;13.660;2022-12-18T09:40:43;9.40;40.70
76470;DHT22;65305;52.870;13.660;2022-12-18T09:43:14;9.40;40.80
76470;DHT22;65305;52.870;13.660;2022-12-18T09:45:44;9.40;40.80
76470;DHT22;65305;52.870;13.660;2022-12-18T09:48:25;9.40;40.80
76470;DHT22;65305;52.870;13.660;2022-12-18T09:50:53;9.40;40.90
76470;DHT22;65305;52.870;13.660;2022-12-18T09:53:24;9.40;41.00
76470;DHT22;65305;52.870;13.660;2022-12-18T09:55:51;9.40;40.90
76470;DHT22;65305;52.870;13.660;2022-12-18T09:58:20;9.40;40.90
76470;DHT22;65305;52.870;13.660;2022-12-18T10:00:53;9.40;40.80
76470;DHT22;65305;52.870;13.660;2022-12-18T10:03:19;9.40;40.90
76470;DHT22;65305;52.870;13.660;2022-12-18T10:06:02;9.40;41.00
76470;DHT22;65305;52.870;13.660;2022-12-18T10:13:45;9.30;41.00
76470;DHT22;65305;52.870;13.660;2022-12-18T10:21:32;9.20;41.00
76470;DHT22;65305;52.870;13.660;2022-12-18T10:26:45;9.20;41.10
76470;DHT22;65305;52.870;13.660;2022-12-18T10:29:13;9.20;41.00
76470;DHT22;65305;52.870;13.660;2022-12-18T10:31:39;9.20;41.10
76470;DHT22;65305;52.870;13.660;2022-12-18T10:34:12;9.20;41.10
76470;DHT22;65305;52.870;13.660;2022-12-18T10:36:38;9.20;41.10
76470;DHT22;65305;52.870;13.660;2022-12-18T10:39:21;9.20;41.10
76470;DHT22;65305;52.870;13.660;2022-12-18T10:41:48;9.20;41.10
76470;DHT22;65305;52.870;13.660;2022-12-18T10:44:19;9.20;41.20
76470;DHT22;65305;52.870;13.660;2022-12-18T10:46:46;9.20;41.10
76470;DHT22;65305;52.870;13.660;2022-12-18T10:49:28;9.20;41.20
76470;DHT22;65305;52.870;13.660;2022-12-18T10:52:15;9.20;41.10
76470;DHT22;65305;52.870;13.660;2022-12-18T10:55:03;9.20;41.20
76470;DHT22;65305;52.870;13.660;2022-12-18T10:57:33;9.20;41.20
76470;DHT22;65305;52.870;13.660;2022-12-18T11:00:18;9.10;41.10
76470;DHT22;65305;52.870;13.660;2022-12-18T11:02:47;9.10;41.20
76470;DHT22;65305;52.870;13.660;2022-12-18T11:05:27;9.10;41.20
76470;DHT22;65305;52.870;13.660;2022-12-18T11:07:54;9.00;41.20
76470;DHT22;65305;52.870;13.660;2022-12-18T11:10:25;9.10;41.20
76470;DHT22;65305;52.870;13.660;2022-12-18T11:12:52;9.10;41.20
76470;DHT22;65305;52.870;13.660;2022-12-18T11:15:20;9.00;41.20
76470;DHT22;65305;52.870;13.660;2022-12-18T11:17:47;9.00;41.20
76470;DHT22;65305;52.870;13.660;2022-12-18T11:20:22;9.00;41.20
76470;DHT22;65305;52.870;13.660;2022-12-18T11:22:57;9.00;41.30
76470;DHT22;65305;52.870;13.660;2022-12-18T11:25:24;9.00;41.40
76470;DHT22;65305;52.870;13.660;2022-12-18T11:27:52;9.00;41.20
76470;DHT22;65305;52.870;13.660;2022-12-18T11:35:34;9.00;41.30
76470;DHT22;65305;52.870;13.660;2022-12-18T11:38:04;9.00;41.40
76470;DHT22;65305;52.870;13.660;2022-12-18T11:40:34;9.00;41.40
76470;DHT22;65305;52.870;13.660;2022-12-18T11:43:07;9.00;41.40
76470;DHT22;65305;52.870;13.660;2022-12-18T11:45:50;9.00;41.40
76470;DHT22;65305;52.870;13.660;2022-12-18T11:48:21;9.00;41.40
76470;DHT22;65305;52.870;13.660;2022-12-18T11:50:56;9.00;41.40
76470;DHT22;65305;52.870;13.660;2022-12-18T11:53:24;8.90;41.40
76470;DHT22;65305;52.870;13.660;2022-12-18T11:55:55;8.90;41.50
76470;DHT22;65305;52.870;13.660;2022-12-18T11:58:34;8.90;41.50
76470;DHT22;65305;52.870;13.660;2022-12-18T12:11:13;8.90;41.50
76470;DHT22;65305;52.870;13.660;2022-12-18T12:21:20;8.90;41.50
76470;DHT22;65305;52.870;13.660;2022-12-18T12:26:23;8.90;41.60
76470;DHT22;65305;52.870;13.660;2022-12-18T12:29:12;8.80;41.50
76470;DHT22;65305;52.870;13.660;2022-12-18T12:36:46;8.80;41.50
76470;DHT22;65305;52.870;13.660;2022-12-18T12:39:18;8.80;41.60
76470;DHT22;65305;52.870;13.660;2022-12-18T12:41:46;8.80;41.60
76470;DHT22;65305;52.870;13.660;2022-12-18T12:44:41;8.80;41.70
76470;DHT22;65305;52.870;13.660;2022-12-18T12:47:17;8.80;41.70
76470;DHT22;65305;52.870;13.660;2022-12-18T12:49:45;8.80;41.60
76470;DHT22;65305;52.870;13.660;2022-12-18T12:54:58;8.80;41.70
76470;DHT22;65305;52.870;13.660;2022-12-18T12:57:29;8.80;41.70
76470;DHT22;65305;52.870;13.660;2022-12-18T13:00:03;8.80;41.70
76470;DHT22;65305;52.870;13.660;2022-12-18T13:05:03;8.70;41.70
76470;DHT22;65305;52.870;13.660;2022-12-18T13:07:37;8.80;41.70
76470;DHT22;65305;52.870;13.660;2022-12-18T13:10:14;8.70;41.60
76470;DHT22;65305;52.870;13.660;2022-12-18T13:15:31;8.70;41.70
76470;DHT22;65305;52.870;13.660;2022-12-18T13:18:04;8.70;41.70
76470;DHT22;65305;52.870;13.660;2022-12-18T13:20:45;8.70;41.80
76470;DHT22;65305;52.870;13.660;2022-12-18T13:23:26;8.70;41.80
76470;DHT22;65305;52.870;13.660;2022-12-18T13:25:54;8.70;41.70
76470;DHT22;65305;52.870;13.660;2022-12-18T13:28:48;8.70;41.60
76470;DHT22;65305;52.870;13.660;2022-12-18T13:31:07;9.00;41.20
76470;DHT22;65305;52.870;13.660;2022-12-18T13:36:25;9.80;40.30
76470;DHT22;65305;52.870;13.660;2022-12-18T13:41:34;10.00;40.20
76470;DHT22;65305;52.870;13.660;2022-12-18T13:44:20;10.10;40.00
76470;DHT22;65305;52.870;13.660;2022-12-18T13:46:50;10.10;40.00
76470;DHT22;65305;52.870;13.660;2022-12-18T13:49:36;10.20;39.90
76470;DHT22;65305;52.870;13.660;2022-12-18T13:55:01;10.40;39.80
76470;DHT22;65305;52.870;13.660;2022-12-18T13:57:32;10.50;39.70
76470;DHT22;65305;52.870;13.660;2022-12-18T14:02:45;10.60;39.50
76470;DHT22;65305;52.870;13.660;2022-12-18T14:05:44;10.60;39.60
76470;DHT22;65305;52.870;13.660;2022-12-18T14:08:11;10.80;39.40
76470;DHT22;65305;52.870;13.660;2022-12-18T14:10:42;10.80;39.40
76470;DHT22;65305;52.870;13.660;2022-12-18T14:13:09;10.80;39.40
76470;DHT22;65305;52.870;13.660;2022-12-18T14:15:40;11.00;39.20
76470;DHT22;65305;52.870;13.660;2022-12-18T14:20:41;11.00;39.30
76470;DHT22;65305;52.870;13.660;2022-12-18T14:23:24;11.20;39.00
76470;DHT22;65305;52.870;13.660;2022-12-18T14:25:52;11.10;39.00
76470;DHT22;65305;52.870;13.660;2022-12-18T14:28:19;11.10;39.10
76470;DHT22;65305;52.870;13.660;2022-12-18T14:30:48;11.40;38.90
76470;DHT22;65305;52.870;13.660;2022-12-18T14:33:24;11.30;38.90
76470;DHT22;65305;52.870;13.660;2022-12-18T14:36:01;11.30;39.00
76470;DHT22;65305;52.870;13.660;2022-12-18T14:38:31;11.50;38.70
76470;DHT22;65305;52.870;13.660;2022-12-18T14:41:12;11.40;38.80
76470;DHT22;65305;52.870;13.660;2022-12-18T14:43:39;11.40;38.80
76470;DHT22;65305;52.870;13.660;2022-12-18T14:46:25;11.50;38.50
76470;DHT22;65305;52.870;13.660;2022-12-18T14:48:53;11.50;38.70
76470;DHT22;65305;52.870;13.660;2022-12-18T14:51:23;11.50;38.70
76470;DHT22;65305;52.870;13.660;2022-12-18T14:53:54;11.70;38.30
76470;DHT22;65305;52.870;13.660;2022-12-18T14:56:31;11.70;38.40
76470;DHT22;65305;52.870;13.660;2022-12-18T14:58:59;11.70;38.50
76470;DHT22;65305;52.870;13.660;2022-12-18T15:03:55;11.80;38.20
76470;DHT22;65305;52.870;13.660;2022-12-18T15:06:32;11.70;38.40
76470;DHT22;65305;52.870;13.660;2022-12-18T15:09:00;11.90;38.20
76470;DHT22;65305;52.870;13.660;2022-12-18T15:11:44;11.90;38.00
76470;DHT22;65305;52.870;13.660;2022-12-18T15:16:51;12.10;38.10
76470;DHT22;65305;52.870;13.660;2022-12-18T15:19:18;12.10;37.80
76470;DHT22;65305;52.870;13.660;2022-12-18T15:21:45;12.00;38.00
76470;DHT22;65305;52.870;13.660;2022-12-18T15:24:21;12.10;38.00
76470;DHT22;65305;52.870;13.660;2022-12-18T15:26:48;12.10;37.80
76470;DHT22;65305;52.870;13.660;2022-12-18T15:29:17;12.00;38.00
76470;DHT22;65305;52.870;13.660;2022-12-18T15:31:45;12.20;37.90
76470;DHT22;65305;52.870;13.660;2022-12-18T15:34:24;12.20;37.70
76470;DHT22;65305;52.870;13.660;2022-12-18T15:36:52;12.10;37.80
76470;DHT22;65305;52.870;13.660;2022-12-18T15:39:18;12.30;37.70
76470;DHT22;65305;52.870;13.660;2022-12-18T15:41:45;12.40;37.50
76470;DHT22;65305;52.870;13.660;2022-12-18T15:44:29;12.20;37.60
76470;DHT22;65305;52.870;13.660;2022-12-18T15:46:56;12.40;37.60
76470;DHT22;65305;52.870;13.660;2022-12-18T15:49:23;12.40;37.50
76470;DHT22;65305;52.870;13.660;2022-12-18T15:51:51;12.30;37.60
76470;DHT22;65305;52.870;13.660;2022-12-18T15:54:19;12.50;37.60
76470;DHT22;65305;52.870;13.660;2022-12-18T15:57:08;12.50;37.30
76470;DHT22;65305;52.870;13.660;2022-12-18T15:59:51;12.50;37.40
76470;DHT22;65305;52.870;13.660;2022-12-18T16:02:19;12.50;37.40
76470;DHT22;65305;52.870;13.660;2022-12-18T16:04:45;12.70;37.10
76470;DHT22;65305;52.870;13.660;2022-12-18T16:07:12;12.50;37.30
76470;DHT22;65305;52.870;13.660;2022-12-18T16:09:38;12.50;37.30
76470;DHT22;65305;52.870;13.660;2022-12-18T16:12:06;12.70;37.00
76470;DHT22;65305;52.870;13.660;2022-12-18T16:14:33;12.60;37.20
76470;DHT22;65305;52.870;13.660;2022-12-18T16:17:01;12.60;37.30
76470;DHT22;65305;52.870;13.660;2022-12-18T16:19:28;12.80;37.10
76470;DHT22;65305;52.870;13.660;2022-12-18T16:21:55;12.70;37.10
76470;DHT22;65305;52.870;13.660;2022-12-18T16:24:23;12.70;37.20
76470;DHT22;65305;52.870;13.660;2022-12-18T16:26:52;12.90;37.00
76470;DHT22;65305;52.870;13.660;2022-12-18T16:29:19;12.80;36.80
76470;DHT22;65305;52.870;13.660;2022-12-18T16:31:56;12.70;37.10
76470;DHT22;65305;52.870;13.660;2022-12-18T16:34:24;12.90;37.00
76470;DHT22;65305;52.870;13.660;2022-12-18T16:36:58;12.80;36.80
76470;DHT22;65305;52.870;13.660;2022-12-18T16:39:25;12.80;37.00
76470;DHT22;65305;52.870;13.660;2022-12-18T16:41:51;13.00;36.90
76470;DHT22;65305;52.870;13.660;2022-12-18T16:44:18;13.00;36.60
76470;DHT22;65305;52.870;13.660;2022-12-18T16:46:44;12.90;36.80
76470;DHT22;65305;52.870;13.660;2022-12-18T16:49:11;13.00;36.80
76470;DHT22;65305;52.870;13.660;2022-12-18T16:51:38;12.90;36.70
76470;DHT22;65305;52.870;13.660;2022-12-18T16:54:05;12.80;36.90
76470;DHT22;65305;52.870;13.660;2022-12-18T16:56:31;12.70;37.10
76470;DHT22;65305;52.870;13.660;2022-12-18T16:58:58;12.50;37.10
76470;DHT22;65305;52.870;13.660;2022-12-18T17:01:25;12.50;37.20
76470;DHT22;65305;52.870;13.660;2022-12-18T17:04:03;12.40;37.30
76470;DHT22;65305;52.870;13.660;2022-12-18T17:06:35;12.30;37.50